sensor_id;sensor_type;location;lat;lon;timestamp;P1;durP1;ratioP1;P2;durP2;ratioP2
6033;SDS011;3045;43.226;27.858;2023-03-01T00:01:27;2.93;;;2.83;;
6033;SDS011;3045;43.226;27.858;2023-03-01T00:03:56;3.47;;;3.27;;
6033;SDS011;3045;43.226;27.858;2023-03-01T00:06:25;3.63;;;3.43;;
6033;SDS011;3045;43.226;27.858;2023-03-01T00:08:53;3.80;;;3.50;;
6033;SDS011;3045;43.226;27.858;2023-03-01T00:11:22;3.73;;;3.53;;
6033;SDS011;3045;43.226;27.858;2023-03-01T00:13:51;4.10;;;3.90;;
6033;SDS011;3045;43.226;27.858;2023-03-01T00:16:19;4.00;;;3.80;;
6033;SDS011;3045;43.226;27.858;2023-03-01T00:18:48;4.40;;;4.20;;
6033;SDS011;3045;43.226;27.858;2023-03-01T00:21:15;4.60;;;4.40;;
6033;SDS011;3045;43.226;27.858;2023-03-01T00:23:42;4.80;;;4.60;;
6033;SDS011;3045;43.226;27.858;2023-03-01T00:26:11;5.03;;;4.73;;
6033;SDS011;3045;43.226;27.858;2023-03-01T00:28:41;5.67;;;5.47;;
6033;SDS011;3045;43.226;27.858;2023-03-01T00:31:09;5.17;;;4.87;;
6033;SDS011;3045;43.226;27.858;2023-03-01T00:33:37;4.63;;;4.33;;
6033;SDS011;3045;43.226;27.858;2023-03-01T00:36:04;5.30;;;5.00;;
6033;SDS011;3045;43.226;27.858;2023-03-01T00:38:34;4.70;;;4.40;;
6033;SDS011;3045;43.226;27.858;2023-03-01T00:41:05;5.60;;;5.20;;
6033;SDS011;3045;43.226;27.858;2023-03-01T00:43:32;5.53;;;5.13;;
6033;SDS011;3045;43.226;27.858;2023-03-01T00:46:03;4.57;;;4.27;;
6033;SDS011;3045;43.226;27.858;2023-03-01T00:48:33;5.30;;;4.80;;
6033;SDS011;3045;43.226;27.858;2023-03-01T00:51:04;4.30;;;4.00;;
6033;SDS011;3045;43.226;27.858;2023-03-01T00:53:32;4.97;;;4.63;;
6033;SDS011;3045;43.226;27.858;2023-03-01T00:56:00;4.67;;;4.47;;
6033;SDS011;3045;43.226;27.858;2023-03-01T00:58:27;5.13;;;4.83;;
6033;SDS011;3045;43.226;27.858;2023-03-01T01:00:53;5.37;;;4.90;;
6033;SDS011;3045;43.226;27.858;2023-03-01T01:03:22;5.07;;;4.60;;
6033;SDS011;3045;43.226;27.858;2023-03-01T01:05:50;4.30;;;4.10;;
6033;SDS011;3045;43.226;27.858;2023-03-01T01:08:17;5.20;;;4.80;;
6033;SDS011;3045;43.226;27.858;2023-03-01T01:10:44;4.30;;;4.03;;
6033;SDS011;3045;43.226;27.858;2023-03-01T01:13:11;5.03;;;4.77;;
6033;SDS011;3045;43.226;27.858;2023-03-01T01:15:38;3.57;;;3.37;;
6033;SDS011;3045;43.226;27.858;2023-03-01T01:18:07;4.37;;;4.07;;
6033;SDS011;3045;43.226;27.858;2023-03-01T01:20:36;5.23;;;4.83;;
6033;SDS011;3045;43.226;27.858;2023-03-01T01:23:04;5.40;;;5.10;;
6033;SDS011;3045;43.226;27.858;2023-03-01T01:25:33;5.60;;;5.30;;
6033;SDS011;3045;43.226;27.858;2023-03-01T01:28:01;4.60;;;4.30;;
6033;SDS011;3045;43.226;27.858;2023-03-01T01:30:28;5.43;;;5.13;;
6033;SDS011;3045;43.226;27.858;2023-03-01T01:32:55;5.77;;;5.37;;
6033;SDS011;3045;43.226;27.858;2023-03-01T01:35:21;6.30;;;6.00;;
6033;SDS011;3045;43.226;27.858;2023-03-01T01:37:50;6.53;;;6.13;;
6033;SDS011;3045;43.226;27.858;2023-03-01T01:40:16;6.87;;;6.40;;
6033;SDS011;3045;43.226;27.858;2023-03-01T01:42:43;6.80;;;6.17;;
6033;SDS011;3045;43.226;27.858;2023-03-01T01:48:02;6.67;;;6.13;;
6033;SDS011;3045;43.226;27.858;2023-03-01T01:50:33;7.00;;;6.17;;
6033;SDS011;3045;43.226;27.858;2023-03-01T01:53:06;6.87;;;6.47;;
6033;SDS011;3045;43.226;27.858;2023-03-01T01:55:39;7.20;;;6.80;;
6033;SDS011;3045;43.226;27.858;2023-03-01T01:58:09;6.47;;;6.17;;
6033;SDS011;3045;43.226;27.858;2023-03-01T02:00:39;7.10;;;6.70;;
6033;SDS011;3045;43.226;27.858;2023-03-01T02:03:08;6.67;;;6.37;;
6033;SDS011;3045;43.226;27.858;2023-03-01T02:05:38;7.03;;;6.43;;
6033;SDS011;3045;43.226;27.858;2023-03-01T02:08:12;8.47;;;7.10;;
6033;SDS011;3045;43.226;27.858;2023-03-01T02:10:40;7.43;;;6.83;;
6033;SDS011;3045;43.226;27.858;2023-03-01T02:13:07;7.60;;;7.00;;
6033;SDS011;3045;43.226;27.858;2023-03-01T02:15:36;6.20;;;5.90;;
6033;SDS011;3045;43.226;27.858;2023-03-01T02:18:05;7.47;;;6.87;;
6033;SDS011;3045;43.226;27.858;2023-03-01T02:20:33;8.43;;;7.80;;
6033;SDS011;3045;43.226;27.858;2023-03-01T02:23:06;7.70;;;7.20;;
6033;SDS011;3045;43.226;27.858;2023-03-01T02:25:35;8.73;;;7.83;;
6033;SDS011;3045;43.226;27.858;2023-03-01T02:28:08;7.97;;;7.43;;
6033;SDS011;3045;43.226;27.858;2023-03-01T02:30:39;7.87;;;7.47;;
6033;SDS011;3045;43.226;27.858;2023-03-01T02:33:27;7.80;;;7.30;;
6033;SDS011;3045;43.226;27.858;2023-03-01T02:35:57;8.20;;;7.63;;
6033;SDS011;3045;43.226;27.858;2023-03-01T02:38:26;8.50;;;8.00;;
6033;SDS011;3045;43.226;27.858;2023-03-01T02:40:54;8.70;;;8.20;;
6033;SDS011;3045;43.226;27.858;2023-03-01T02:43:24;9.27;;;8.57;;
6033;SDS011;3045;43.226;27.858;2023-03-01T02:45:57;8.80;;;8.30;;
6033;SDS011;3045;43.226;27.858;2023-03-01T02:48:25;9.50;;;9.00;;
6033;SDS011;3045;43.226;27.858;2023-03-01T02:50:54;10.23;;;9.07;;
6033;SDS011;3045;43.226;27.858;2023-03-01T02:53:33;8.77;;;8.07;;
6033;SDS011;3045;43.226;27.858;2023-03-01T02:56:05;10.77;;;9.43;;
6033;SDS011;3045;43.226;27.858;2023-03-01T02:58:38;10.60;;;9.53;;
6033;SDS011;3045;43.226;27.858;2023-03-01T03:01:12;10.70;;;10.00;;
6033;SDS011;3045;43.226;27.858;2023-03-01T03:03:40;11.37;;;10.33;;
6033;SDS011;3045;43.226;27.858;2023-03-01T03:06:07;11.80;;;10.80;;
6033;SDS011;3045;43.226;27.858;2023-03-01T03:08:35;12.23;;;11.23;;
6033;SDS011;3045;43.226;27.858;2023-03-01T03:11:02;11.87;;;10.77;;
6033;SDS011;3045;43.226;27.858;2023-03-01T03:13:29;13.50;;;12.03;;
6033;SDS011;3045;43.226;27.858;2023-03-01T03:15:57;12.03;;;10.87;;
6033;SDS011;3045;43.226;27.858;2023-03-01T03:18:25;12.73;;;11.60;;
6033;SDS011;3045;43.226;27.858;2023-03-01T03:20:52;11.90;;;10.80;;
6033;SDS011;3045;43.226;27.858;2023-03-01T03:23:19;11.30;;;10.20;;
6033;SDS011;3045;43.226;27.858;2023-03-01T03:25:49;11.50;;;10.60;;
6033;SDS011;3045;43.226;27.858;2023-03-01T03:28:17;12.63;;;11.33;;
6033;SDS011;3045;43.226;27.858;2023-03-01T03:30:44;11.90;;;10.97;;
6033;SDS011;3045;43.226;27.858;2023-03-01T03:33:12;13.27;;;11.97;;
6033;SDS011;3045;43.226;27.858;2023-03-01T03:35:41;13.20;;;11.83;;
6033;SDS011;3045;43.226;27.858;2023-03-01T03:38:10;12.57;;;11.40;;
6033;SDS011;3045;43.226;27.858;2023-03-01T03:40:42;13.33;;;11.93;;
6033;SDS011;3045;43.226;27.858;2023-03-01T03:43:11;12.87;;;11.43;;
6033;SDS011;3045;43.226;27.858;2023-03-01T03:45:39;11.93;;;10.83;;
6033;SDS011;3045;43.226;27.858;2023-03-01T03:48:07;12.30;;;10.83;;
6033;SDS011;3045;43.226;27.858;2023-03-01T03:50:35;12.73;;;11.50;;
6033;SDS011;3045;43.226;27.858;2023-03-01T03:53:05;12.90;;;11.67;;
6033;SDS011;3045;43.226;27.858;2023-03-01T03:55:33;12.93;;;11.80;;
6033;SDS011;3045;43.226;27.858;2023-03-01T03:58:01;15.27;;;12.67;;
6033;SDS011;3045;43.226;27.858;2023-03-01T04:00:32;11.73;;;10.77;;
6033;SDS011;3045;43.226;27.858;2023-03-01T04:03:00;13.57;;;12.27;;
6033;SDS011;3045;43.226;27.858;2023-03-01T04:05:28;18.07;;;11.87;;
6033;SDS011;3045;43.226;27.858;2023-03-01T04:07:55;13.80;;;12.60;;
6033;SDS011;3045;43.226;27.858;2023-03-01T04:10:34;15.67;;;13.93;;
6033;SDS011;3045;43.226;27.858;2023-03-01T04:13:03;14.87;;;13.47;;
6033;SDS011;3045;43.226;27.858;2023-03-01T04:15:30;16.50;;;13.30;;
6033;SDS011;3045;43.226;27.858;2023-03-01T04:17:58;15.03;;;12.23;;
6033;SDS011;3045;43.226;27.858;2023-03-01T04:20:26;16.77;;;13.37;;
6033;SDS011;3045;43.226;27.858;2023-03-01T04:22:57;14.97;;;13.57;;
6033;SDS011;3045;43.226;27.858;2023-03-01T04:25:24;14.20;;;11.77;;
6033;SDS011;3045;43.226;27.858;2023-03-01T04:27:55;17.77;;;12.83;;
6033;SDS011;3045;43.226;27.858;2023-03-01T04:30:21;14.50;;;12.93;;
6033;SDS011;3045;43.226;27.858;2023-03-01T04:32:50;16.37;;;14.47;;
6033;SDS011;3045;43.226;27.858;2023-03-01T04:35:17;14.13;;;12.60;;
6033;SDS011;3045;43.226;27.858;2023-03-01T04:37:44;16.37;;;13.00;;
6033;SDS011;3045;43.226;27.858;2023-03-01T04:40:11;16.53;;;13.97;;
6033;SDS011;3045;43.226;27.858;2023-03-01T04:42:41;15.63;;;13.67;;
6033;SDS011;3045;43.226;27.858;2023-03-01T04:45:10;15.57;;;12.33;;
6033;SDS011;3045;43.226;27.858;2023-03-01T04:47:39;15.87;;;14.17;;
6033;SDS011;3045;43.226;27.858;2023-03-01T04:50:08;17.63;;;12.80;;
6033;SDS011;3045;43.226;27.858;2023-03-01T04:52:36;15.00;;;13.50;;
6033;SDS011;3045;43.226;27.858;2023-03-01T04:55:03;14.00;;;12.57;;
6033;SDS011;3045;43.226;27.858;2023-03-01T04:57:33;15.90;;;13.10;;
6033;SDS011;3045;43.226;27.858;2023-03-01T05:00:01;14.60;;;13.07;;
6033;SDS011;3045;43.226;27.858;2023-03-01T05:02:46;13.90;;;12.40;;
6033;SDS011;3045;43.226;27.858;2023-03-01T05:05:18;13.60;;;12.30;;
6033;SDS011;3045;43.226;27.858;2023-03-01T05:07:51;12.80;;;11.60;;
6033;SDS011;3045;43.226;27.858;2023-03-01T05:10:19;11.87;;;10.80;;
6033;SDS011;3045;43.226;27.858;2023-03-01T05:12:46;12.90;;;11.60;;
6033;SDS011;3045;43.226;27.858;2023-03-01T05:15:13;11.70;;;10.67;;
6033;SDS011;3045;43.226;27.858;2023-03-01T05:17:40;12.73;;;11.57;;
6033;SDS011;3045;43.226;27.858;2023-03-01T05:20:09;12.67;;;11.57;;
6033;SDS011;3045;43.226;27.858;2023-03-01T05:22:37;13.57;;;12.13;;
6033;SDS011;3045;43.226;27.858;2023-03-01T05:25:04;14.50;;;11.90;;
6033;SDS011;3045;43.226;27.858;2023-03-01T05:27:34;13.50;;;12.30;;
6033;SDS011;3045;43.226;27.858;2023-03-01T05:30:01;11.33;;;10.47;;
6033;SDS011;3045;43.226;27.858;2023-03-01T05:32:39;13.90;;;12.27;;
6033;SDS011;3045;43.226;27.858;2023-03-01T05:35:09;11.27;;;9.97;;
6033;SDS011;3045;43.226;27.858;2023-03-01T05:37:38;13.97;;;12.37;;
6033;SDS011;3045;43.226;27.858;2023-03-01T05:40:07;12.70;;;11.53;;
6033;SDS011;3045;43.226;27.858;2023-03-01T05:42:41;12.43;;;11.20;;
6033;SDS011;3045;43.226;27.858;2023-03-01T05:45:09;13.10;;;11.43;;
6033;SDS011;3045;43.226;27.858;2023-03-01T05:47:37;14.97;;;12.30;;
6033;SDS011;3045;43.226;27.858;2023-03-01T05:50:10;13.67;;;12.47;;
6033;SDS011;3045;43.226;27.858;2023-03-01T05:52:39;12.97;;;11.23;;
6033;SDS011;3045;43.226;27.858;2023-03-01T05:55:06;15.53;;;11.50;;
6033;SDS011;3045;43.226;27.858;2023-03-01T05:57:33;15.50;;;11.27;;
6033;SDS011;3045;43.226;27.858;2023-03-01T06:00:00;14.73;;;11.83;;
6033;SDS011;3045;43.226;27.858;2023-03-01T06:02:28;15.47;;;11.97;;
6033;SDS011;3045;43.226;27.858;2023-03-01T06:04:55;13.20;;;12.10;;
6033;SDS011;3045;43.226;27.858;2023-03-01T06:07:23;14.70;;;12.20;;
6033;SDS011;3045;43.226;27.858;2023-03-01T06:09:50;14.70;;;12.83;;
6033;SDS011;3045;43.226;27.858;2023-03-01T06:12:17;14.40;;;12.87;;
6033;SDS011;3045;43.226;27.858;2023-03-01T06:14:44;14.40;;;12.93;;
6033;SDS011;3045;43.226;27.858;2023-03-01T06:17:12;14.00;;;12.63;;
6033;SDS011;3045;43.226;27.858;2023-03-01T06:19:39;16.40;;;12.97;;
6033;SDS011;3045;43.226;27.858;2023-03-01T06:22:06;14.83;;;12.83;;
6033;SDS011;3045;43.226;27.858;2023-03-01T06:24:34;14.23;;;12.77;;
6033;SDS011;3045;43.226;27.858;2023-03-01T06:27:01;14.03;;;12.67;;
6033;SDS011;3045;43.226;27.858;2023-03-01T06:29:28;18.73;;;13.20;;
6033;SDS011;3045;43.226;27.858;2023-03-01T06:31:55;14.70;;;13.27;;
6033;SDS011;3045;43.226;27.858;2023-03-01T06:34:22;15.17;;;13.37;;
6033;SDS011;3045;43.226;27.858;2023-03-01T06:36:49;15.00;;;13.60;;
6033;SDS011;3045;43.226;27.858;2023-03-01T06:39:16;13.60;;;12.33;;
6033;SDS011;3045;43.226;27.858;2023-03-01T06:41:44;12.60;;;11.23;;
6033;SDS011;3045;43.226;27.858;2023-03-01T06:44:11;13.90;;;12.20;;
6033;SDS011;3045;43.226;27.858;2023-03-01T06:46:41;15.40;;;12.67;;
6033;SDS011;3045;43.226;27.858;2023-03-01T06:49:07;13.37;;;11.73;;
6033;SDS011;3045;43.226;27.858;2023-03-01T06:51:35;13.90;;;12.53;;
6033;SDS011;3045;43.226;27.858;2023-03-01T06:54:03;15.57;;;13.70;;
6033;SDS011;3045;43.226;27.858;2023-03-01T06:56:30;13.60;;;12.40;;
6033;SDS011;3045;43.226;27.858;2023-03-01T06:58:58;12.63;;;11.60;;
6033;SDS011;3045;43.226;27.858;2023-03-01T07:01:28;12.77;;;11.47;;
6033;SDS011;3045;43.226;27.858;2023-03-01T07:03:55;12.93;;;11.63;;
6033;SDS011;3045;43.226;27.858;2023-03-01T07:06:23;13.13;;;12.03;;
6033;SDS011;3045;43.226;27.858;2023-03-01T07:08:52;17.20;;;13.07;;
6033;SDS011;3045;43.226;27.858;2023-03-01T07:11:19;15.27;;;13.50;;
6033;SDS011;3045;43.226;27.858;2023-03-01T07:13:46;13.63;;;12.33;;
6033;SDS011;3045;43.226;27.858;2023-03-01T07:16:14;18.43;;;13.97;;
6033;SDS011;3045;43.226;27.858;2023-03-01T07:18:41;16.97;;;13.30;;
6033;SDS011;3045;43.226;27.858;2023-03-01T07:21:09;14.93;;;13.17;;
6033;SDS011;3045;43.226;27.858;2023-03-01T07:23:38;15.70;;;13.60;;
6033;SDS011;3045;43.226;27.858;2023-03-01T07:26:05;15.17;;;13.70;;
6033;SDS011;3045;43.226;27.858;2023-03-01T07:28:35;17.13;;;13.40;;
6033;SDS011;3045;43.226;27.858;2023-03-01T07:31:04;18.17;;;13.43;;
6033;SDS011;3045;43.226;27.858;2023-03-01T07:33:33;17.97;;;14.07;;
6033;SDS011;3045;43.226;27.858;2023-03-01T07:36:00;15.20;;;13.33;;
6033;SDS011;3045;43.226;27.858;2023-03-01T07:38:31;17.73;;;14.50;;
6033;SDS011;3045;43.226;27.858;2023-03-01T07:40:59;18.97;;;15.27;;
6033;SDS011;3045;43.226;27.858;2023-03-01T07:43:27;18.17;;;12.97;;
6033;SDS011;3045;43.226;27.858;2023-03-01T07:45:54;21.00;;;14.63;;
6033;SDS011;3045;43.226;27.858;2023-03-01T07:48:24;17.00;;;14.40;;
6033;SDS011;3045;43.226;27.858;2023-03-01T07:50:53;22.83;;;14.50;;
6033;SDS011;3045;43.226;27.858;2023-03-01T07:53:19;22.80;;;14.57;;
6033;SDS011;3045;43.226;27.858;2023-03-01T07:55:46;23.97;;;14.83;;
6033;SDS011;3045;43.226;27.858;2023-03-01T07:58:26;18.80;;;14.17;;
6033;SDS011;3045;43.226;27.858;2023-03-01T08:00:52;20.10;;;14.83;;
6033;SDS011;3045;43.226;27.858;2023-03-01T08:03:19;20.13;;;13.03;;
6033;SDS011;3045;43.226;27.858;2023-03-01T08:05:46;15.90;;;14.17;;
6033;SDS011;3045;43.226;27.858;2023-03-01T08:08:14;15.37;;;13.77;;
6033;SDS011;3045;43.226;27.858;2023-03-01T08:10:41;14.70;;;13.23;;
6033;SDS011;3045;43.226;27.858;2023-03-01T08:13:08;21.23;;;14.67;;
6033;SDS011;3045;43.226;27.858;2023-03-01T08:15:35;21.13;;;14.53;;
6033;SDS011;3045;43.226;27.858;2023-03-01T08:18:02;16.00;;;12.03;;
6033;SDS011;3045;43.226;27.858;2023-03-01T08:20:29;20.93;;;14.17;;
6033;SDS011;3045;43.226;27.858;2023-03-01T08:22:57;20.73;;;13.67;;
6033;SDS011;3045;43.226;27.858;2023-03-01T08:25:25;18.93;;;12.80;;
6033;SDS011;3045;43.226;27.858;2023-03-01T08:27:52;15.70;;;12.80;;
6033;SDS011;3045;43.226;27.858;2023-03-01T08:30:19;14.20;;;12.70;;
6033;SDS011;3045;43.226;27.858;2023-03-01T08:32:48;23.00;;;13.00;;
6033;SDS011;3045;43.226;27.858;2023-03-01T08:35:16;13.53;;;12.13;;
6033;SDS011;3045;43.226;27.858;2023-03-01T08:37:43;19.23;;;13.23;;
6033;SDS011;3045;43.226;27.858;2023-03-01T08:40:10;14.67;;;12.97;;
6033;SDS011;3045;43.226;27.858;2023-03-01T08:42:40;13.67;;;12.43;;
6033;SDS011;3045;43.226;27.858;2023-03-01T08:45:08;14.50;;;12.40;;
6033;SDS011;3045;43.226;27.858;2023-03-01T08:47:37;13.33;;;12.13;;
6033;SDS011;3045;43.226;27.858;2023-03-01T08:50:05;14.17;;;12.77;;
6033;SDS011;3045;43.226;27.858;2023-03-01T08:52:32;20.40;;;11.00;;
6033;SDS011;3045;43.226;27.858;2023-03-01T08:55:01;17.03;;;12.13;;
6033;SDS011;3045;43.226;27.858;2023-03-01T08:57:28;22.30;;;13.60;;
6033;SDS011;3045;43.226;27.858;2023-03-01T08:59:57;15.20;;;13.30;;
6033;SDS011;3045;43.226;27.858;2023-03-01T09:02:23;16.53;;;12.13;;
6033;SDS011;3045;43.226;27.858;2023-03-01T09:04:50;15.50;;;12.80;;
6033;SDS011;3045;43.226;27.858;2023-03-01T09:07:17;15.10;;;13.70;;
6033;SDS011;3045;43.226;27.858;2023-03-01T09:09:44;19.93;;;12.63;;
6033;SDS011;3045;43.226;27.858;2023-03-01T09:12:11;14.70;;;13.27;;
6033;SDS011;3045;43.226;27.858;2023-03-01T09:14:38;17.57;;;14.33;;
6033;SDS011;3045;43.226;27.858;2023-03-01T09:17:07;21.00;;;13.97;;
6033;SDS011;3045;43.226;27.858;2023-03-01T09:19:34;16.33;;;14.63;;
6033;SDS011;3045;43.226;27.858;2023-03-01T09:22:02;15.97;;;14.27;;
6033;SDS011;3045;43.226;27.858;2023-03-01T09:24:29;22.53;;;14.47;;
6033;SDS011;3045;43.226;27.858;2023-03-01T09:26:56;16.53;;;14.83;;
6033;SDS011;3045;43.226;27.858;2023-03-01T09:29:23;15.63;;;14.07;;
6033;SDS011;3045;43.226;27.858;2023-03-01T09:31:51;24.87;;;15.43;;
6033;SDS011;3045;43.226;27.858;2023-03-01T09:34:21;24.93;;;14.87;;
6033;SDS011;3045;43.226;27.858;2023-03-01T09:36:49;25.10;;;15.73;;
6033;SDS011;3045;43.226;27.858;2023-03-01T09:39:16;44.07;;;16.23;;
6033;SDS011;3045;43.226;27.858;2023-03-01T09:41:48;20.00;;;15.23;;
6033;SDS011;3045;43.226;27.858;2023-03-01T09:44:21;24.63;;;15.63;;
6033;SDS011;3045;43.226;27.858;2023-03-01T09:46:56;18.20;;;14.30;;
6033;SDS011;3045;43.226;27.858;2023-03-01T09:49:26;17.30;;;14.83;;
6033;SDS011;3045;43.226;27.858;2023-03-01T09:51:57;20.97;;;16.00;;
6033;SDS011;3045;43.226;27.858;2023-03-01T09:54:27;22.83;;;15.07;;
6033;SDS011;3045;43.226;27.858;2023-03-01T09:56:59;24.97;;;15.40;;
6033;SDS011;3045;43.226;27.858;2023-03-01T09:59:33;19.13;;;13.83;;
6033;SDS011;3045;43.226;27.858;2023-03-01T10:02:18;15.80;;;14.17;;
6033;SDS011;3045;43.226;27.858;2023-03-01T10:04:51;19.47;;;14.40;;
6033;SDS011;3045;43.226;27.858;2023-03-01T10:07:23;22.63;;;14.13;;
6033;SDS011;3045;43.226;27.858;2023-03-01T10:09:56;27.00;;;15.93;;
6033;SDS011;3045;43.226;27.858;2023-03-01T10:12:26;16.90;;;14.10;;
6033;SDS011;3045;43.226;27.858;2023-03-01T10:15:01;15.30;;;12.17;;
6033;SDS011;3045;43.226;27.858;2023-03-01T10:17:33;17.43;;;13.30;;
6033;SDS011;3045;43.226;27.858;2023-03-01T10:22:53;23.87;;;13.60;;
6033;SDS011;3045;43.226;27.858;2023-03-01T10:25:23;16.60;;;13.20;;
6033;SDS011;3045;43.226;27.858;2023-03-01T10:28:05;18.67;;;13.13;;
6033;SDS011;3045;43.226;27.858;2023-03-01T10:30:39;16.20;;;12.27;;
6033;SDS011;3045;43.226;27.858;2023-03-01T10:33:10;20.97;;;13.20;;
6033;SDS011;3045;43.226;27.858;2023-03-01T10:35:45;13.23;;;11.93;;
6033;SDS011;3045;43.226;27.858;2023-03-01T10:38:13;13.53;;;12.00;;
6033;SDS011;3045;43.226;27.858;2023-03-01T10:40:51;14.23;;;11.10;;
6033;SDS011;3045;43.226;27.858;2023-03-01T10:43:22;16.93;;;12.63;;
6033;SDS011;3045;43.226;27.858;2023-03-01T10:45:49;18.90;;;12.83;;
6033;SDS011;3045;43.226;27.858;2023-03-01T10:48:17;13.97;;;12.40;;
6033;SDS011;3045;43.226;27.858;2023-03-01T10:50:50;14.40;;;12.57;;
6033;SDS011;3045;43.226;27.858;2023-03-01T10:53:32;17.50;;;12.80;;
6033;SDS011;3045;43.226;27.858;2023-03-01T10:56:01;17.60;;;12.27;;
6033;SDS011;3045;43.226;27.858;2023-03-01T10:58:30;14.40;;;12.87;;
6033;SDS011;3045;43.226;27.858;2023-03-01T11:00:58;15.10;;;11.87;;
6033;SDS011;3045;43.226;27.858;2023-03-01T11:03:27;16.33;;;11.80;;
6033;SDS011;3045;43.226;27.858;2023-03-01T11:06:01;15.83;;;12.50;;
6033;SDS011;3045;43.226;27.858;2023-03-01T11:08:40;17.83;;;13.93;;
6033;SDS011;3045;43.226;27.858;2023-03-01T11:11:29;14.30;;;12.80;;
6033;SDS011;3045;43.226;27.858;2023-03-01T11:13:58;11.77;;;10.53;;
6033;SDS011;3045;43.226;27.858;2023-03-01T11:16:36;14.43;;;12.93;;
6033;SDS011;3045;43.226;27.858;2023-03-01T11:19:18;16.27;;;11.80;;
6033;SDS011;3045;43.226;27.858;2023-03-01T11:21:53;13.10;;;11.80;;
6033;SDS011;3045;43.226;27.858;2023-03-01T11:24:30;10.57;;;9.77;;
6033;SDS011;3045;43.226;27.858;2023-03-01T11:27:04;14.23;;;10.87;;
6033;SDS011;3045;43.226;27.858;2023-03-01T11:29:41;13.60;;;12.33;;
6033;SDS011;3045;43.226;27.858;2023-03-01T11:32:12;18.73;;;11.63;;
6033;SDS011;3045;43.226;27.858;2023-03-01T11:34:42;13.10;;;10.93;;
6033;SDS011;3045;43.226;27.858;2023-03-01T11:37:19;13.03;;;11.73;;
6033;SDS011;3045;43.226;27.858;2023-03-01T11:39:54;12.77;;;10.87;;
6033;SDS011;3045;43.226;27.858;2023-03-01T11:42:28;10.37;;;9.43;;
6033;SDS011;3045;43.226;27.858;2023-03-01T11:45:06;10.43;;;9.27;;
6033;SDS011;3045;43.226;27.858;2023-03-01T11:47:47;10.10;;;9.33;;
6033;SDS011;3045;43.226;27.858;2023-03-01T11:50:29;23.03;;;9.70;;
6033;SDS011;3045;43.226;27.858;2023-03-01T11:53:13;11.80;;;8.60;;
6033;SDS011;3045;43.226;27.858;2023-03-01T11:56:02;9.10;;;8.00;;
6033;SDS011;3045;43.226;27.858;2023-03-01T11:58:41;10.73;;;9.60;;
6033;SDS011;3045;43.226;27.858;2023-03-01T12:04:27;10.50;;;9.87;;
6033;SDS011;3045;43.226;27.858;2023-03-01T12:07:09;10.83;;;8.20;;
6033;SDS011;3045;43.226;27.858;2023-03-01T12:09:47;10.53;;;9.70;;
6033;SDS011;3045;43.226;27.858;2023-03-01T12:12:34;11.17;;;10.27;;
6033;SDS011;3045;43.226;27.858;2023-03-01T12:18:16;12.00;;;10.77;;
6033;SDS011;3045;43.226;27.858;2023-03-01T12:21:06;19.63;;;10.27;;
6033;SDS011;3045;43.226;27.858;2023-03-01T12:23:48;10.67;;;9.87;;
6033;SDS011;3045;43.226;27.858;2023-03-01T12:26:28;11.40;;;10.47;;
6033;SDS011;3045;43.226;27.858;2023-03-01T12:34:55;11.70;;;10.80;;
6033;SDS011;3045;43.226;27.858;2023-03-01T12:37:40;13.67;;;11.17;;
6033;SDS011;3045;43.226;27.858;2023-03-01T12:40:29;11.63;;;10.67;;
6033;SDS011;3045;43.226;27.858;2023-03-01T12:43:25;10.33;;;9.70;;
6033;SDS011;3045;43.226;27.858;2023-03-01T12:46:09;13.90;;;9.90;;
6033;SDS011;3045;43.226;27.858;2023-03-01T12:48:47;11.70;;;10.60;;
6033;SDS011;3045;43.226;27.858;2023-03-01T12:51:23;10.43;;;9.47;;
6033;SDS011;3045;43.226;27.858;2023-03-01T12:53:53;11.73;;;10.60;;
6033;SDS011;3045;43.226;27.858;2023-03-01T12:56:23;10.80;;;9.93;;
6033;SDS011;3045;43.226;27.858;2023-03-01T12:58:57;9.67;;;9.17;;
6033;SDS011;3045;43.226;27.858;2023-03-01T13:01:34;15.93;;;9.60;;
6033;SDS011;3045;43.226;27.858;2023-03-01T13:04:16;8.90;;;8.50;;
6033;SDS011;3045;43.226;27.858;2023-03-01T13:06:55;7.97;;;7.50;;
6033;SDS011;3045;43.226;27.858;2023-03-01T13:09:30;10.37;;;8.87;;
6033;SDS011;3045;43.226;27.858;2023-03-01T13:12:02;9.57;;;8.70;;
6033;SDS011;3045;43.226;27.858;2023-03-01T13:17:30;9.30;;;8.57;;
6033;SDS011;3045;43.226;27.858;2023-03-01T13:19:59;8.10;;;7.60;;
6033;SDS011;3045;43.226;27.858;2023-03-01T13:22:27;7.57;;;6.87;;
6033;SDS011;3045;43.226;27.858;2023-03-01T13:25:01;7.60;;;7.20;;
6033;SDS011;3045;43.226;27.858;2023-03-01T13:27:38;8.47;;;7.87;;
6033;SDS011;3045;43.226;27.858;2023-03-01T13:30:12;7.57;;;7.07;;
6033;SDS011;3045;43.226;27.858;2023-03-01T13:39:27;7.97;;;7.20;;
6033;SDS011;3045;43.226;27.858;2023-03-01T13:41:57;8.63;;;7.93;;
6033;SDS011;3045;43.226;27.858;2023-03-01T13:44:28;8.33;;;7.87;;
6033;SDS011;3045;43.226;27.858;2023-03-01T13:47:01;7.13;;;6.47;;
6033;SDS011;3045;43.226;27.858;2023-03-01T13:49:43;7.33;;;7.00;;
6033;SDS011;3045;43.226;27.858;2023-03-01T13:52:28;7.60;;;7.10;;
6033;SDS011;3045;43.226;27.858;2023-03-01T13:55:10;8.20;;;7.73;;
6033;SDS011;3045;43.226;27.858;2023-03-01T13:57:44;8.47;;;8.00;;
6033;SDS011;3045;43.226;27.858;2023-03-01T14:00:32;9.73;;;8.80;;
6033;SDS011;3045;43.226;27.858;2023-03-01T14:03:09;8.13;;;7.40;;
6033;SDS011;3045;43.226;27.858;2023-03-01T14:05:38;8.50;;;8.00;;
6033;SDS011;3045;43.226;27.858;2023-03-01T14:08:17;9.13;;;8.33;;
6033;SDS011;3045;43.226;27.858;2023-03-01T14:10:54;9.80;;;8.30;;
6033;SDS011;3045;43.226;27.858;2023-03-01T14:13:52;8.90;;;8.30;;
6033;SDS011;3045;43.226;27.858;2023-03-01T14:16:31;11.00;;;8.77;;
6033;SDS011;3045;43.226;27.858;2023-03-01T14:19:16;10.87;;;9.67;;
6033;SDS011;3045;43.226;27.858;2023-03-01T14:21:45;9.17;;;8.60;;
6033;SDS011;3045;43.226;27.858;2023-03-01T14:24:20;8.67;;;7.93;;
6033;SDS011;3045;43.226;27.858;2023-03-01T14:26:48;12.47;;;9.30;;
6033;SDS011;3045;43.226;27.858;2023-03-01T14:29:25;9.60;;;8.83;;
6033;SDS011;3045;43.226;27.858;2023-03-01T14:31:53;10.07;;;9.17;;
6033;SDS011;3045;43.226;27.858;2023-03-01T14:34:22;10.07;;;8.97;;
6033;SDS011;3045;43.226;27.858;2023-03-01T14:36:50;10.93;;;9.93;;
6033;SDS011;3045;43.226;27.858;2023-03-01T14:39:18;10.07;;;9.50;;
6033;SDS011;3045;43.226;27.858;2023-03-01T14:41:47;14.53;;;10.60;;
6033;SDS011;3045;43.226;27.858;2023-03-01T14:44:15;10.77;;;9.70;;
6033;SDS011;3045;43.226;27.858;2023-03-01T14:46:51;11.90;;;10.67;;
6033;SDS011;3045;43.226;27.858;2023-03-01T14:49:22;12.13;;;11.03;;
6033;SDS011;3045;43.226;27.858;2023-03-01T14:51:52;11.17;;;10.10;;
6033;SDS011;3045;43.226;27.858;2023-03-01T14:54:24;19.23;;;10.53;;
6033;SDS011;3045;43.226;27.858;2023-03-01T14:56:53;11.93;;;10.70;;
6033;SDS011;3045;43.226;27.858;2023-03-01T14:59:25;12.50;;;11.33;;
6033;SDS011;3045;43.226;27.858;2023-03-01T15:01:54;19.07;;;11.63;;
6033;SDS011;3045;43.226;27.858;2023-03-01T15:04:24;12.67;;;11.43;;
6033;SDS011;3045;43.226;27.858;2023-03-01T15:06:54;12.30;;;11.30;;
6033;SDS011;3045;43.226;27.858;2023-03-01T15:09:36;17.90;;;12.10;;
6033;SDS011;3045;43.226;27.858;2023-03-01T15:15:06;11.43;;;10.50;;
6033;SDS011;3045;43.226;27.858;2023-03-01T15:17:48;12.40;;;11.33;;
6033;SDS011;3045;43.226;27.858;2023-03-01T15:20:22;13.33;;;12.10;;
6033;SDS011;3045;43.226;27.858;2023-03-01T15:22:52;12.83;;;11.63;;
6033;SDS011;3045;43.226;27.858;2023-03-01T15:25:21;14.87;;;12.40;;
6033;SDS011;3045;43.226;27.858;2023-03-01T15:27:51;18.97;;;12.50;;
6033;SDS011;3045;43.226;27.858;2023-03-01T15:30:20;11.77;;;10.87;;
6033;SDS011;3045;43.226;27.858;2023-03-01T15:35:47;12.77;;;11.60;;
6033;SDS011;3045;43.226;27.858;2023-03-01T15:38:35;13.23;;;12.03;;